Wall, SD (57790)

5:38 PM MST on December 21, 2014 (GMT -0700)
Philip | Change Station
CLOSE
Current Station
Airport
Location: Philip,
Elevation: 2208 ft
Nearby Weather Stations
Active Advisory: Winter Weather Advisory

Elev 2208 ft 44.05 °N, 101.60 °W | Updated 43 minutes ago

Overcast
Overcast
38 °F
Feels Like 32 °F
N
9
Wind Variable Wind from North

Today
High -- | Low -- °F
--% Chance of Precip.
Yesterday
High -- | Low -- °F
Precip. -- in
7:20 AM 4:13 PM
Waning Crescent, 0% visible
Pressure 29.45 in
Visibility 10.0 miles
Clouds Mostly Cloudy 11000 ft
Windchill 32 °F
Dew Point 29 °F
Humidity 70%
Rainfall 0.00 in
Snow Depth Not available.
UV 0 out of 12
Pollen .10 out of 12
Air Quality Not available.
Flu Activity Not available.
METAR KPHP 212355Z AUTO 35008KT 10SM BKN110 03/M02 A2940 RMK AO2 SLP972 T00331017 10106 20033 51009

More Conditions Fewer Conditions

Pressure 29.45 in
Visibility 10.0 miles
Clouds Mostly Cloudy 11000 ft
Windchill 32 °F
Dew Point 29 °F
Humidity 70%
Rainfall 0.00 in
Snow Depth Not available.
UV 0 out of 12
Pollen .10 out of 12
Air Quality Not available.
Flu Activity Not available.
METAR KPHP 212355Z AUTO 35008KT 10SM BKN110 03/M02 A2940 RMK AO2 SLP972 T00331017 10106 20033 51009

More Conditions Fewer Conditions

10-Day Weather Forecast

Almanac

Astronomy

Dec. 21, 2014 Rise Set
Actual Time
Civil Twilight
Nautical Twilight
Astronomical Twilight
Moon
Length of Visible Light
Length of Day
Tomorrow will be .
, % of the Moon is Illuminated

Today's Extremes

State Highs State Lows

Community

WunderPhotos

Upload Photos

1,779,510 photos uploaded!

WunderBlogs® & News

Nearby

Air Quality

  Air Quality AQ Index Pollutant
Not available.

Snow Depth

Station Depth Elevation

Earthquake Activity

City Distance Mag. Time & Date
Minimum magnitude displayed is 2.5.

Coastal Water Temperatures

Place Temperature

Nearby Weather Stations